POW weather

Portoroz Airport
Portoroz, Piran, Slovenia

Public forecast

Using degrees Celsius for public forecast. Weather courtesy of forecast.io.

Current aviation weather report (METAR) for Portoroz Airport

Retrieved 2019/12/15 12:30 UTC (26 minutes ago):

LJPZ 151230Z 20004KT 170V240 9999 FEW023 BKN065 15/11 Q1015

Closest aviation forecast (TAF) to Portoroz Airport

Closest forecast is Trieste–Friuli Venezia Giulia Airport, 22.1 nm (40.9 km) NNW. Retrieved 2019/12/15 12:21 UTC (35 minutes ago):

TAF LIPQ 151100Z 1512/1612 VRB05KT 9999 FEW030 BECMG 1514/1516 3000 DZ BR